Time;durP1;ratioP1;P1;durP2;ratioP2;P2;SDS_P1;SDS_P2;PMS_P1;PMS_P2;Temp;Humidity;BMP_temperature;BMP_pressure;BME280_temperature;BME280_humidity;BME280_pressure;Samples;Min_cycle;Max_cycle;Signal;HPM_P1;HPM_P2
2024/02/27 00:00:50;;;;;;;4.13;2.30;;;;;;;;;;7412539;19;20246;-78
2024/02/27 00:03:36;;;;;;;3.75;2.30;;;;;;;;;;7411844;19;19919;-78
2024/02/27 00:06:25;;;;;;;5.60;2.28;;;;;;;;;;7407613;19;19919;-78
2024/02/27 00:09:14;;;;;;;4.22;2.35;;;;;;;;;;7409180;19;20257;-78
2024/02/27 00:11:59;;;;;;;4.78;2.05;;;;;;;;;;7409077;19;19915;-78
2024/02/27 00:14:46;;;;;;;5.65;2.55;;;;;;;;;;7409628;19;19914;-78
2024/02/27 00:17:32;;;;;;;6.20;2.40;;;;;;;;;;7410172;19;19910;-78
2024/02/27 00:20:21;;;;;;;3.50;2.13;;;;;;;;;;7409458;19;19914;-78
2024/02/27 00:23:08;;;;;;;5.80;2.50;;;;;;;;;;7409271;19;19923;-78
2024/02/27 00:25:52;;;;;;;3.60;2.05;;;;;;;;;;7408929;19;19919;-78
2024/02/27 00:28:37;;;;;;;4.53;2.30;;;;;;;;;;7410574;19;19915;-78
2024/02/27 00:31:21;;;;;;;3.05;2.20;;;;;;;;;;7407645;19;19917;-78
2024/02/27 00:34:05;;;;;;;4.15;2.22;;;;;;;;;;7409111;19;20019;-78
2024/02/27 00:36:49;;;;;;;6.15;2.72;;;;;;;;;;7408365;19;20258;-78
2024/02/27 00:39:38;;;;;;;5.35;2.58;;;;;;;;;;7408658;19;19918;-78
2024/02/27 00:42:25;;;;;;;4.40;2.72;;;;;;;;;;7409280;19;19919;-78
2024/02/27 00:45:19;;;;;;;7.35;2.80;;;;;;;;;;7407712;19;20333;-78
2024/02/27 00:48:03;;;;;;;4.32;2.40;;;;;;;;;;7408678;19;20329;-78
2024/02/27 00:50:50;;;;;;;5.68;2.40;;;;;;;;;;7406036;19;20261;-78
2024/02/27 00:53:34;;;;;;;2.63;1.65;;;;;;;;;;7409454;19;20332;-78
2024/02/27 00:56:24;;;;;;;4.47;2.70;;;;;;;;;;7409275;19;19919;-78
2024/02/27 00:59:13;;;;;;;4.50;2.38;;;;;;;;;;7407848;19;19910;-78
2024/02/27 01:01:59;;;;;;;5.13;2.50;;;;;;;;;;7406726;19;19922;-78
2024/02/27 01:04:44;;;;;;;4.15;2.35;;;;;;;;;;7408464;19;20356;-78
2024/02/27 01:07:28;;;;;;;4.60;2.40;;;;;;;;;;7407667;19;19919;-78
2024/02/27 01:10:12;;;;;;;5.30;2.30;;;;;;;;;;7407863;19;19922;-78
2024/02/27 01:12:59;;;;;;;4.78;2.47;;;;;;;;;;7406230;19;19914;-78
2024/02/27 01:15:46;;;;;;;5.05;2.72;;;;;;;;;;7406632;19;19914;-78
2024/02/27 01:18:30;;;;;;;5.75;2.85;;;;;;;;;;7408234;19;19910;-78
2024/02/27 01:21:14;;;;;;;5.55;3.08;;;;;;;;;;7408382;19;20367;-78
2024/02/27 01:24:02;;;;;;;6.45;3.30;;;;;;;;;;7407735;19;20253;-78
2024/02/27 01:26:46;;;;;;;5.50;2.70;;;;;;;;;;7407220;19;19949;-78
2024/02/27 01:29:35;;;;;;;7.30;3.28;;;;;;;;;;7406428;19;19911;-78
2024/02/27 01:32:20;;;;;;;7.13;2.78;;;;;;;;;;7406962;19;19922;-78
2024/02/27 01:35:07;;;;;;;5.63;3.00;;;;;;;;;;7407807;19;19914;-78
2024/02/27 01:37:53;;;;;;;6.13;2.90;;;;;;;;;;7406046;19;19911;-78
2024/02/27 01:40:40;;;;;;;6.47;3.95;;;;;;;;;;7406011;19;20005;-78
2024/02/27 01:43:25;;;;;;;5.75;3.13;;;;;;;;;;7407427;19;19914;-78
2024/02/27 01:46:17;;;;;;;5.93;2.97;;;;;;;;;;7405729;19;20185;-78
2024/02/27 01:49:06;;;;;;;8.50;3.58;;;;;;;;;;7407491;19;19922;-78
2024/02/27 01:51:51;;;;;;;6.57;3.72;;;;;;;;;;7405267;19;19922;-78
2024/02/27 01:54:41;;;;;;;6.75;3.53;;;;;;;;;;7406932;19;19933;-78
2024/02/27 01:57:28;;;;;;;6.90;3.63;;;;;;;;;;7405849;19;20289;-78
2024/02/27 02:00:15;;;;;;;11.27;4.32;;;;;;;;;;7406741;19;20336;-78
2024/02/27 02:03:07;;;;;;;10.50;4.88;;;;;;;;;;7405936;19;19943;-78
2024/02/27 02:05:52;;;;;;;8.93;4.57;;;;;;;;;;7407887;19;19923;-78
2024/02/27 02:08:37;;;;;;;12.82;5.38;;;;;;;;;;7407411;19;20288;-78
2024/02/27 02:11:21;;;;;;;10.07;5.35;;;;;;;;;;7407161;19;19914;-78
2024/02/27 02:14:08;;;;;;;13.88;5.68;;;;;;;;;;7405663;19;19918;-78
2024/02/27 02:16:55;;;;;;;13.48;5.72;;;;;;;;;;7405589;19;19918;-78
2024/02/27 02:19:47;;;;;;;11.50;5.32;;;;;;;;;;7405726;19;20273;-78
2024/02/27 02:22:38;;;;;;;9.93;5.38;;;;;;;;;;7405623;19;20309;-79
2024/02/27 02:25:30;;;;;;;11.23;5.68;;;;;;;;;;7405616;19;19906;-79
2024/02/27 02:28:17;;;;;;;11.50;5.40;;;;;;;;;;7405190;19;19922;-79
2024/02/27 02:31:04;;;;;;;10.20;5.30;;;;;;;;;;7404265;19;19907;-79
2024/02/27 02:33:50;;;;;;;12.80;6.07;;;;;;;;;;7404899;19;19918;-79
2024/02/27 02:36:37;;;;;;;12.80;5.35;;;;;;;;;;7405850;19;19910;-79
2024/02/27 02:39:24;;;;;;;14.60;5.35;;;;;;;;;;7413160;19;19922;-79
2024/02/27 02:42:09;;;;;;;11.20;6.07;;;;;;;;;;7411666;19;20325;-79
2024/02/27 02:44:53;;;;;;;9.55;5.85;;;;;;;;;;7411626;19;19923;-79
2024/02/27 02:47:40;;;;;;;15.23;6.38;;;;;;;;;;7410132;19;19922;-79
2024/02/27 02:50:24;;;;;;;15.70;6.20;;;;;;;;;;7411680;19;20268;-78
2024/02/27 02:53:13;;;;;;;12.05;5.28;;;;;;;;;;7411710;19;19922;-78
2024/02/27 02:56:02;;;;;;;12.50;5.53;;;;;;;;;;7411218;19;20370;-78
2024/02/27 02:58:49;;;;;;;13.23;5.63;;;;;;;;;;7412146;19;19938;-78
2024/02/27 03:01:33;;;;;;;12.00;5.75;;;;;;;;;;7411049;19;19914;-78
2024/02/27 03:04:19;;;;;;;11.05;5.90;;;;;;;;;;7413017;19;19918;-78
2024/02/27 03:07:06;;;;;;;12.45;5.95;;;;;;;;;;7408241;19;19914;-78
2024/02/27 03:09:53;;;;;;;9.07;5.43;;;;;;;;;;7411407;19;19914;-78
2024/02/27 03:12:46;;;;;;;14.60;6.30;;;;;;;;;;7411973;19;19986;-78
2024/02/27 03:15:31;;;;;;;13.32;5.93;;;;;;;;;;7412441;19;19920;-78
2024/02/27 03:18:20;;;;;;;13.73;5.25;;;;;;;;;;7408178;19;20308;-78
2024/02/27 03:21:04;;;;;;;15.68;5.88;;;;;;;;;;7411674;19;20261;-78
2024/02/27 03:23:51;;;;;;;14.77;6.57;;;;;;;;;;7410592;19;20337;-78
2024/02/27 03:26:41;;;;;;;12.40;5.43;;;;;;;;;;7409531;19;19918;-78
2024/02/27 03:29:28;;;;;;;13.85;6.22;;;;;;;;;;7411664;19;19922;-78
2024/02/27 03:32:14;;;;;;;12.07;5.95;;;;;;;;;;7410251;19;20250;-78
2024/02/27 03:35:03;;;;;;;12.85;5.93;;;;;;;;;;7410997;19;19917;-78
2024/02/27 03:37:49;;;;;;;18.08;6.93;;;;;;;;;;7407861;19;19918;-78
2024/02/27 03:40:34;;;;;;;17.52;6.93;;;;;;;;;;7412905;19;19914;-78
2024/02/27 03:43:21;;;;;;;13.88;6.55;;;;;;;;;;7410514;19;19970;-78
2024/02/27 03:46:10;;;;;;;11.43;6.00;;;;;;;;;;7409735;19;19933;-81
2024/02/27 03:48:57;;;;;;;11.30;5.63;;;;;;;;;;7415109;19;20333;-81
2024/02/27 03:51:43;;;;;;;12.65;5.40;;;;;;;;;;7414451;19;19922;-82
2024/02/27 03:54:28;;;;;;;15.23;5.70;;;;;;;;;;7416432;19;19907;-82
2024/02/27 03:57:14;;;;;;;14.65;5.95;;;;;;;;;;7413726;19;19921;-82
2024/02/27 04:00:09;;;;;;;14.00;5.63;;;;;;;;;;7414882;19;19918;-82
2024/02/27 04:02:58;;;;;;;15.52;6.75;;;;;;;;;;7414781;19;20426;-82
2024/02/27 04:05:45;;;;;;;18.58;7.05;;;;;;;;;;7415793;19;19919;-82
2024/02/27 04:08:31;;;;;;;14.60;6.15;;;;;;;;;;7415729;19;19919;-82
2024/02/27 04:11:15;;;;;;;14.65;6.32;;;;;;;;;;7415029;19;19929;-82
2024/02/27 04:14:02;;;;;;;13.52;6.63;;;;;;;;;;7413768;19;19926;-82
2024/02/27 04:16:51;;;;;;;12.32;5.85;;;;;;;;;;7413716;19;19922;-82
2024/02/27 04:19:38;;;;;;;13.23;6.80;;;;;;;;;;7415778;19;19917;-82
2024/02/27 04:22:25;;;;;;;15.77;7.75;;;;;;;;;;7414534;19;19982;-82
2024/02/27 04:25:14;;;;;;;15.57;7.05;;;;;;;;;;7413468;19;20679;-82
2024/02/27 04:28:00;;;;;;;17.15;7.32;;;;;;;;;;7406937;19;19915;-82
2024/02/27 04:30:45;;;;;;;18.00;6.40;;;;;;;;;;7413958;19;19918;-81
2024/02/27 04:33:31;;;;;;;14.50;7.75;;;;;;;;;;7411472;19;20330;-81
2024/02/27 04:36:19;;;;;;;21.73;8.93;;;;;;;;;;7413722;19;19930;-82
2024/02/27 04:39:06;;;;;;;16.65;6.97;;;;;;;;;;7415268;19;19919;-82
2024/02/27 04:41:53;;;;;;;14.70;6.85;;;;;;;;;;7413614;19;19918;-82
2024/02/27 04:44:39;;;;;;;14.95;6.70;;;;;;;;;;7415450;19;19918;-82
2024/02/27 04:47:28;;;;;;;16.98;7.32;;;;;;;;;;7411970;19;19917;-82
2024/02/27 04:50:15;;;;;;;13.30;6.63;;;;;;;;;;7416102;19;19929;-82
2024/02/27 04:53:02;;;;;;;14.65;6.80;;;;;;;;;;7416067;19;19917;-80
2024/02/27 04:55:46;;;;;;;14.55;6.68;;;;;;;;;;7419047;19;19930;-80
2024/02/27 04:58:31;;;;;;;14.25;6.75;;;;;;;;;;7419067;19;20301;-80
2024/02/27 05:01:17;;;;;;;17.88;7.90;;;;;;;;;;7416729;19;19918;-80
2024/02/27 05:04:04;;;;;;;18.25;7.38;;;;;;;;;;7420533;19;19930;-80
2024/02/27 05:06:48;;;;;;;16.05;7.85;;;;;;;;;;7418955;19;20321;-80
2024/02/27 05:09:37;;;;;;;15.43;7.55;;;;;;;;;;7420515;19;19915;-80
2024/02/27 05:12:24;;;;;;;26.92;8.35;;;;;;;;;;7422309;19;19917;-80
2024/02/27 05:15:09;;;;;;;16.88;7.15;;;;;;;;;;7425693;19;19994;-80
2024/02/27 05:17:58;;;;;;;17.23;7.97;;;;;;;;;;7424768;19;19921;-80
2024/02/27 05:20:43;;;;;;;15.60;7.57;;;;;;;;;;7423933;19;20254;-80
2024/02/27 05:23:27;;;;;;;18.98;8.15;;;;;;;;;;7422178;19;19934;-79
2024/02/27 05:26:18;;;;;;;16.08;7.95;;;;;;;;;;7422262;19;19926;-79
2024/02/27 05:29:03;;;;;;;18.45;8.30;;;;;;;;;;7417427;19;19923;-80
2024/02/27 05:31:50;;;;;;;17.60;7.68;;;;;;;;;;7415795;19;19921;-79
2024/02/27 05:34:35;;;;;;;17.10;7.75;;;;;;;;;;7418480;19;19930;-79
2024/02/27 05:37:20;;;;;;;19.23;8.63;;;;;;;;;;7416382;19;19922;-79
2024/02/27 05:40:08;;;;;;;15.45;6.55;;;;;;;;;;7417120;19;19918;-79
2024/02/27 05:42:55;;;;;;;16.20;7.75;;;;;;;;;;7416820;19;19915;-79
2024/02/27 05:45:42;;;;;;;15.25;7.20;;;;;;;;;;7417840;19;19914;-79
2024/02/27 05:48:29;;;;;;;16.58;7.13;;;;;;;;;;7418300;19;19911;-79
2024/02/27 05:51:19;;;;;;;15.60;7.35;;;;;;;;;;7415698;19;19993;-79
2024/02/27 05:54:06;;;;;;;19.30;8.70;;;;;;;;;;7416732;19;19919;-79
2024/02/27 05:56:54;;;;;;;15.18;7.53;;;;;;;;;;7416604;19;19931;-79
2024/02/27 05:59:44;;;;;;;20.95;9.48;;;;;;;;;;7415986;19;19927;-80
2024/02/27 06:02:28;;;;;;;21.55;9.13;;;;;;;;;;7415947;19;20322;-80
2024/02/27 06:05:13;;;;;;;21.00;9.80;;;;;;;;;;7416532;19;20234;-80
2024/02/27 06:07:57;;;;;;;16.27;9.15;;;;;;;;;;7416220;19;20358;-80
2024/02/27 06:10:42;;;;;;;15.38;8.55;;;;;;;;;;7416066;19;19950;-80
2024/02/27 06:13:29;;;;;;;16.67;8.40;;;;;;;;;;7416605;19;19915;-80
2024/02/27 06:16:16;;;;;;;24.48;10.07;;;;;;;;;;7414341;19;19947;-80
2024/02/27 06:19:01;;;;;;;21.98;9.43;;;;;;;;;;7419583;19;19963;-80
2024/02/27 06:24:46;;;;;;;19.75;8.88;;;;;;;;;;7424796;19;20257;-80
2024/02/27 06:27:33;;;;;;;15.35;7.90;;;;;;;;;;7421945;19;19918;-80
2024/02/27 06:30:17;;;;;;;21.02;9.07;;;;;;;;;;7420103;19;19915;-80
2024/02/27 06:33:07;;;;;;;17.95;9.52;;;;;;;;;;7418529;19;19910;-80
2024/02/27 06:35:56;;;;;;;22.27;10.48;;;;;;;;;;7415581;19;20279;-80
2024/02/27 06:38:41;;;;;;;21.67;9.98;;;;;;;;;;7414867;19;20374;-80
2024/02/27 06:41:27;;;;;;;28.83;12.20;;;;;;;;;;7414205;19;19914;-80
2024/02/27 06:44:12;;;;;;;24.88;11.23;;;;;;;;;;7413377;19;19917;-80
2024/02/27 06:46:58;;;;;;;27.48;12.15;;;;;;;;;;7415163;19;19911;-80
2024/02/27 06:49:45;;;;;;;20.52;9.48;;;;;;;;;;7414095;19;19990;-80
2024/02/27 06:52:29;;;;;;;18.88;9.15;;;;;;;;;;7414327;19;19918;-80
2024/02/27 06:55:18;;;;;;;21.58;10.73;;;;;;;;;;7416476;19;19918;-80
2024/02/27 06:58:03;;;;;;;18.33;9.88;;;;;;;;;;7417286;19;20397;-80
2024/02/27 07:00:48;;;;;;;20.40;10.02;;;;;;;;;;7417569;19;19923;-80
2024/02/27 07:03:32;;;;;;;23.92;9.20;;;;;;;;;;7412866;19;20345;-80
2024/02/27 07:06:21;;;;;;;31.95;10.55;;;;;;;;;;7414836;19;19919;-80
2024/02/27 07:09:08;;;;;;;21.88;9.35;;;;;;;;;;7415906;19;20397;-80
2024/02/27 07:11:55;;;;;;;18.98;9.85;;;;;;;;;;7414667;19;19914;-80
2024/02/27 07:14:42;;;;;;;19.17;9.55;;;;;;;;;;7416349;19;20344;-80
2024/02/27 07:17:29;;;;;;;20.92;9.10;;;;;;;;;;7415490;19;19946;-80
2024/02/27 07:20:15;;;;;;;21.60;9.55;;;;;;;;;;7415714;19;19910;-80
2024/02/27 07:23:07;;;;;;;19.33;9.02;;;;;;;;;;7418289;19;20341;-80
2024/02/27 07:25:54;;;;;;;20.77;9.48;;;;;;;;;;7426049;19;19910;-80
2024/02/27 07:28:41;;;;;;;18.52;8.93;;;;;;;;;;7424632;19;19923;-80
2024/02/27 07:31:27;;;;;;;17.83;8.80;;;;;;;;;;7423531;19;19930;-80
2024/02/27 07:34:12;;;;;;;19.33;8.80;;;;;;;;;;7422492;19;19919;-80
2024/02/27 07:37:00;;;;;;;27.50;10.35;;;;;;;;;;7423186;19;19906;-80
2024/02/27 07:39:52;;;;;;;23.75;8.75;;;;;;;;;;7423948;19;20000;-80
2024/02/27 07:42:41;;;;;;;17.92;8.98;;;;;;;;;;7419129;19;19918;-80
2024/02/27 07:45:25;;;;;;;18.95;8.70;;;;;;;;;;7424168;19;20080;-80
2024/02/27 07:48:10;;;;;;;18.63;9.70;;;;;;;;;;7421458;19;20637;-80
2024/02/27 07:50:56;;;;;;;20.08;8.85;;;;;;;;;;7423023;19;19911;-80
2024/02/27 07:53:44;;;;;;;23.02;10.38;;;;;;;;;;7421602;19;20329;-80
2024/02/27 07:56:33;;;;;;;20.42;7.82;;;;;;;;;;7424325;19;19923;-80
2024/02/27 07:59:18;;;;;;;19.48;9.52;;;;;;;;;;7424268;19;19919;-80
2024/02/27 08:02:02;;;;;;;16.70;8.35;;;;;;;;;;7421496;19;19915;-80
2024/02/27 08:04:51;;;;;;;18.83;9.15;;;;;;;;;;7423812;19;19917;-80
2024/02/27 08:07:37;;;;;;;16.75;8.90;;;;;;;;;;7419714;19;19911;-80
2024/02/27 08:10:27;;;;;;;18.92;9.05;;;;;;;;;;7422497;19;19930;-80
2024/02/27 08:13:17;;;;;;;20.17;9.43;;;;;;;;;;7416657;19;19926;-80
2024/02/27 08:16:03;;;;;;;;;;;;;;;;;;7421682;19;19928;-80
2024/02/27 08:18:50;;;;;;;21.05;8.75;;;;;;;;;;7422543;19;19922;-80
2024/02/27 08:21:37;;;;;;;21.10;9.63;;;;;;;;;;7421190;19;19935;-80
2024/02/27 08:24:23;;;;;;;17.80;9.38;;;;;;;;;;7420257;19;19922;-79
2024/02/27 08:27:07;;;;;;;19.98;8.80;;;;;;;;;;7417367;19;19943;-79
2024/02/27 08:29:54;;;;;;;21.23;9.45;;;;;;;;;;7405847;19;20324;-80
2024/02/27 08:32:41;;;;;;;20.95;9.50;;;;;;;;;;7410904;19;19911;-80
2024/02/27 08:35:25;;;;;;;18.75;9.80;;;;;;;;;;7407537;19;19923;-80
2024/02/27 08:38:14;;;;;;;18.77;9.32;;;;;;;;;;7412295;19;20380;-80
2024/02/27 08:41:03;;;;;;;19.23;8.95;;;;;;;;;;7415367;19;19951;-80
2024/02/27 08:43:47;;;;;;;15.98;8.32;;;;;;;;;;7423412;19;19932;-80
2024/02/27 08:46:37;;;;;;;16.20;8.35;;;;;;;;;;7420374;19;19921;-80
2024/02/27 08:49:26;;;;;;;21.35;9.02;;;;;;;;;;7421821;19;19919;-80
2024/02/27 08:52:13;;;;;;;19.15;8.60;;;;;;;;;;7419547;19;19923;-80
2024/02/27 08:54:57;;;;;;;18.23;9.32;;;;;;;;;;7421850;19;19914;-80
2024/02/27 08:57:44;;;;;;;18.92;9.43;;;;;;;;;;7421811;19;19914;-80
2024/02/27 09:00:30;;;;;;;21.45;9.35;;;;;;;;;;7420128;19;20398;-80
2024/02/27 09:03:22;;;;;;;21.27;9.23;;;;;;;;;;7421827;19;19930;-80
2024/02/27 09:06:09;;;;;;;20.27;9.30;;;;;;;;;;7419833;19;20310;-80
2024/02/27 09:08:58;;;;;;;19.02;8.63;;;;;;;;;;7422142;19;19922;-80
2024/02/27 09:11:42;;;;;;;19.63;9.38;;;;;;;;;;7419474;19;19994;-80
2024/02/27 09:14:27;;;;;;;18.90;9.68;;;;;;;;;;7419895;19;19914;-80
2024/02/27 09:17:16;;;;;;;16.15;8.60;;;;;;;;;;7419076;19;19995;-80
2024/02/27 09:20:06;;;;;;;17.73;9.25;;;;;;;;;;7421547;19;19918;-80
2024/02/27 09:22:56;;;;;;;21.27;10.13;;;;;;;;;;7418736;19;20265;-80
2024/02/27 09:25:42;;;;;;;19.35;9.18;;;;;;;;;;7420445;19;20353;-80
2024/02/27 09:28:27;;;;;;;17.77;8.60;;;;;;;;;;7417097;19;19972;-80
2024/02/27 09:31:16;;;;;;;17.38;8.30;;;;;;;;;;7416852;19;20396;-80
2024/02/27 09:34:06;;;;;;;17.30;8.73;;;;;;;;;;7413930;19;19914;-80
2024/02/27 09:36:56;;;;;;;15.20;7.90;;;;;;;;;;7418178;19;19930;-80
2024/02/27 09:39:45;;;;;;;17.42;7.97;;;;;;;;;;7410361;19;19968;-80
2024/02/27 09:42:32;;;;;;;17.30;8.27;;;;;;;;;;7405126;19;19910;-80
2024/02/27 09:45:19;;;;;;;18.05;8.60;;;;;;;;;;7408298;19;19918;-80
2024/02/27 09:48:05;;;;;;;16.73;8.82;;;;;;;;;;7405605;19;19921;-78
2024/02/27 09:50:54;;;;;;;16.58;7.93;;;;;;;;;;7404726;19;20329;-78
2024/02/27 09:53:47;;;;;;;17.77;8.52;;;;;;;;;;7389704;19;19918;-78
2024/02/27 09:56:35;;;;;;;14.60;8.40;;;;;;;;;;7389021;19;19985;-78
2024/02/27 09:59:22;;;;;;;20.13;8.32;;;;;;;;;;7394130;19;19921;-78
2024/02/27 10:02:13;;;;;;;17.45;8.75;;;;;;;;;;7394760;19;19941;-78
2024/02/27 10:05:03;;;;;;;15.60;7.80;;;;;;;;;;7399866;19;19932;-78
2024/02/27 10:07:51;;;;;;;15.45;8.63;;;;;;;;;;7395344;19;19926;-79
2024/02/27 10:10:41;;;;;;;15.02;8.73;;;;;;;;;;7395680;19;19933;-78
2024/02/27 10:13:25;;;;;;;17.20;8.93;;;;;;;;;;7391992;19;19944;-78
2024/02/27 10:16:15;;;;;;;17.35;8.40;;;;;;;;;;7396505;19;19936;-78
2024/02/27 10:18:59;;;;;;;19.42;8.65;;;;;;;;;;7405088;19;19918;-78
2024/02/27 10:21:44;;;;;;;13.25;7.22;;;;;;;;;;7400546;19;20358;-78
2024/02/27 10:24:29;;;;;;;14.70;8.77;;;;;;;;;;7402865;19;19927;-78
2024/02/27 10:27:23;;;;;;;14.32;7.82;;;;;;;;;;7397100;19;19914;-78
2024/02/27 10:30:11;;;;;;;16.13;8.55;;;;;;;;;;7397493;19;19986;-78
2024/02/27 10:32:58;;;;;;;15.30;7.68;;;;;;;;;;7392446;19;19918;-76
2024/02/27 10:35:45;;;;;;;15.18;7.90;;;;;;;;;;7402856;19;19922;-78
2024/02/27 10:38:32;;;;;;;15.77;8.70;;;;;;;;;;7403244;19;19919;-78
2024/02/27 10:41:20;;;;;;;13.65;7.35;;;;;;;;;;7402035;19;19931;-78
2024/02/27 10:44:09;;;;;;;14.43;7.70;;;;;;;;;;7404408;19;19922;-77
2024/02/27 10:46:56;;;;;;;14.32;7.75;;;;;;;;;;7402156;19;19936;-78
2024/02/27 10:49:45;;;;;;;13.90;7.57;;;;;;;;;;7403167;19;19944;-78
2024/02/27 10:52:34;;;;;;;15.95;7.63;;;;;;;;;;7403284;19;19914;-78
2024/02/27 10:55:22;;;;;;;14.35;7.88;;;;;;;;;;7404492;19;19914;-78
2024/02/27 10:58:09;;;;;;;14.95;7.93;;;;;;;;;;7401326;19;20257;-78
2024/02/27 11:00:57;;;;;;;12.75;7.22;;;;;;;;;;7410698;19;19940;-78
2024/02/27 11:03:43;;;;;;;15.48;7.75;;;;;;;;;;7404731;19;19910;-78
2024/02/27 11:06:33;;;;;;;13.98;7.70;;;;;;;;;;7414713;19;19915;-78
2024/02/27 11:09:25;;;;;;;12.85;7.30;;;;;;;;;;7409424;19;19910;-78
2024/02/27 11:12:18;;;;;;;12.65;6.80;;;;;;;;;;7409566;19;19972;-78
2024/02/27 11:15:13;;;;;;;14.25;7.03;;;;;;;;;;7404548;19;20242;-78
2024/02/27 11:18:08;;;;;;;13.45;6.88;;;;;;;;;;7406832;19;19923;-78
2024/02/27 11:21:18;;;;;;;12.68;7.45;;;;;;;;;;7411963;19;19922;-78
2024/02/27 11:24:08;;;;;;;17.13;8.30;;;;;;;;;;7409949;19;20333;-78
2024/02/27 11:27:04;;;;;;;13.48;7.15;;;;;;;;;;7404462;19;19926;-78
2024/02/27 11:30:00;;;;;;;13.90;6.78;;;;;;;;;;7410071;19;20393;-78
2024/02/27 11:32:47;;;;;;;15.10;7.68;;;;;;;;;;7409626;19;19922;-78
2024/02/27 11:35:37;;;;;;;11.15;6.45;;;;;;;;;;7404117;19;19914;-78
2024/02/27 11:38:23;;;;;;;12.77;6.97;;;;;;;;;;7407826;19;20325;-78
2024/02/27 11:41:18;;;;;;;13.70;6.82;;;;;;;;;;7409992;19;19940;-78
2024/02/27 11:44:10;;;;;;;14.27;7.35;;;;;;;;;;7406501;19;20286;-78
2024/02/27 11:47:35;;;;;;;13.93;7.47;;;;;;;;;;7409486;19;19963;-78
2024/02/27 11:50:49;;;;;;;11.57;6.88;;;;;;;;;;7404223;19;19929;-78
2024/02/27 11:53:45;;;;;;;12.40;6.78;;;;;;;;;;7410287;19;19926;-78
2024/02/27 11:56:43;;;;;;;11.80;6.93;;;;;;;;;;7406850;19;19922;-78
2024/02/27 11:59:32;;;;;;;11.20;7.38;;;;;;;;;;7407861;19;19915;-78
2024/02/27 12:02:41;;;;;;;11.85;7.03;;;;;;;;;;7407404;19;20418;-78
2024/02/27 12:05:37;;;;;;;11.40;6.15;;;;;;;;;;7404533;19;19929;-78
2024/02/27 12:08:29;;;;;;;11.98;6.68;;;;;;;;;;7408670;19;20309;-78
2024/02/27 12:11:20;;;;;;;12.48;6.63;;;;;;;;;;7408239;19;19914;-78
2024/02/27 12:14:07;;;;;;;12.32;6.43;;;;;;;;;;7407022;19;19933;-78
2024/02/27 12:16:54;;;;;;;12.48;5.90;;;;;;;;;;7404374;19;20281;-79
2024/02/27 12:19:47;;;;;;;11.07;6.50;;;;;;;;;;7408674;19;19914;-78
2024/02/27 12:22:37;;;;;;;10.75;5.70;;;;;;;;;;7402685;19;19935;-78
2024/02/27 12:25:24;;;;;;;10.82;6.63;;;;;;;;;;7399870;19;19930;-78
2024/02/27 12:28:11;;;;;;;12.80;6.22;;;;;;;;;;7417816;19;19910;-78
2024/02/27 12:30:59;;;;;;;12.60;5.72;;;;;;;;;;7439582;19;19940;-78
2024/02/27 12:33:48;;;;;;;11.40;5.95;;;;;;;;;;7440247;19;19925;-78
2024/02/27 12:36:32;;;;;;;9.02;6.03;;;;;;;;;;7429809;19;19930;-78
2024/02/27 12:39:18;;;;;;;12.18;5.85;;;;;;;;;;7411304;19;19927;-78
2024/02/27 12:42:09;;;;;;;11.05;6.65;;;;;;;;;;7407571;19;19915;-78
2024/02/27 12:44:58;;;;;;;11.55;6.32;;;;;;;;;;7405374;19;19918;-78
2024/02/27 12:47:49;;;;;;;13.00;6.63;;;;;;;;;;7408751;19;19958;-78
2024/02/27 12:50:49;;;;;;;10.82;5.78;;;;;;;;;;7406449;19;19982;-78
2024/02/27 12:53:36;;;;;;;9.57;5.25;;;;;;;;;;7403931;19;19911;-78
2024/02/27 12:56:25;;;;;;;8.98;4.75;;;;;;;;;;7401578;19;19961;-78
2024/02/27 12:59:13;;;;;;;9.73;4.75;;;;;;;;;;7406865;19;20287;-77
2024/02/27 13:01:58;;;;;;;10.40;5.03;;;;;;;;;;7401775;19;20270;-78
2024/02/27 13:04:44;;;;;;;10.75;5.47;;;;;;;;;;7401721;19;19930;-78
2024/02/27 13:07:29;;;;;;;11.05;6.00;;;;;;;;;;7406682;19;19986;-78
2024/02/27 13:10:19;;;;;;;10.57;5.18;;;;;;;;;;7408694;19;20249;-78
2024/02/27 13:13:13;;;;;;;11.07;5.47;;;;;;;;;;7409405;19;19950;-78
2024/02/27 13:16:03;;;;;;;;;;;;;;;;;;7405174;19;19921;-77
2024/02/27 13:18:47;;;;;;;8.48;4.75;;;;;;;;;;7409413;19;20281;-77
2024/02/27 13:21:31;;;;;;;12.23;5.05;;;;;;;;;;7405393;19;19959;-78
2024/02/27 13:24:15;;;;;;;10.15;4.97;;;;;;;;;;7415810;19;19940;-78
2024/02/27 13:27:06;;;;;;;10.70;5.78;;;;;;;;;;7424373;19;20300;-77
2024/02/27 13:29:53;;;;;;;8.77;5.05;;;;;;;;;;7409272;19;19921;-77
2024/02/27 13:32:45;;;;;;;8.00;5.03;;;;;;;;;;7407252;19;19947;-78
2024/02/27 13:35:35;;;;;;;8.93;5.63;;;;;;;;;;7410430;19;19933;-78
2024/02/27 13:38:25;;;;;;;12.40;6.00;;;;;;;;;;7401879;19;19940;-78
2024/02/27 13:41:10;;;;;;;9.60;5.25;;;;;;;;;;7405457;19;20249;-78
2024/02/27 13:44:00;;;;;;;9.88;5.78;;;;;;;;;;7408614;19;19918;-78
2024/02/27 13:46:45;;;;;;;11.30;5.78;;;;;;;;;;7406447;19;20333;-78
2024/02/27 13:49:37;;;;;;;9.75;5.20;;;;;;;;;;7408544;19;20252;-78
2024/02/27 13:52:23;;;;;;;10.07;5.50;;;;;;;;;;7409427;19;19914;-78
2024/02/27 13:55:08;;;;;;;12.02;5.45;;;;;;;;;;7406751;19;20633;-78
2024/02/27 13:57:59;;;;;;;10.05;6.03;;;;;;;;;;7405347;19;19943;-78
2024/02/27 14:00:52;;;;;;;10.60;5.32;;;;;;;;;;7408543;19;19915;-77
2024/02/27 14:03:38;;;;;;;8.93;4.90;;;;;;;;;;7407956;19;19915;-77
2024/02/27 14:06:30;;;;;;;9.00;5.18;;;;;;;;;;7409012;19;19950;-78
2024/02/27 14:09:14;;;;;;;11.63;5.57;;;;;;;;;;7408523;19;19923;-78
2024/02/27 14:11:59;;;;;;;12.15;6.03;;;;;;;;;;7404551;19;20345;-78
2024/02/27 14:14:44;;;;;;;12.85;5.88;;;;;;;;;;7405184;19;20325;-78
2024/02/27 14:17:30;;;;;;;9.13;5.57;;;;;;;;;;7406087;19;19914;-78
2024/02/27 14:20:15;;;;;;;9.95;5.82;;;;;;;;;;7408613;19;20337;-78
2024/02/27 14:23:04;;;;;;;11.50;5.85;;;;;;;;;;7408082;19;20343;-78
2024/02/27 14:25:53;;;;;;;11.32;6.45;;;;;;;;;;7406124;19;19918;-78
2024/02/27 14:28:43;;;;;;;10.90;5.60;;;;;;;;;;7405649;19;19930;-78
2024/02/27 14:31:28;;;;;;;9.38;5.60;;;;;;;;;;7404727;19;19915;-78
2024/02/27 14:34:14;;;;;;;9.20;5.65;;;;;;;;;;7409254;19;20329;-78
2024/02/27 14:36:59;;;;;;;11.60;5.65;;;;;;;;;;7411205;19;19911;-79
2024/02/27 14:39:48;;;;;;;9.52;5.85;;;;;;;;;;7406765;19;19917;-78
2024/02/27 14:42:32;;;;;;;10.75;5.80;;;;;;;;;;7410758;19;19930;-78
2024/02/27 14:45:21;;;;;;;10.50;5.35;;;;;;;;;;7412387;19;19919;-79
2024/02/27 14:48:07;;;;;;;10.57;5.35;;;;;;;;;;7407018;19;19986;-79
2024/02/27 14:50:56;;;;;;;;;;;;;;;;;;7413961;19;19918;-78
2024/02/27 14:53:42;;;;;;;11.43;6.13;;;;;;;;;;7407299;19;19914;-78
2024/02/27 14:56:31;;;;;;;8.13;4.63;;;;;;;;;;7411296;19;19919;-78
2024/02/27 14:59:18;;;;;;;11.85;5.40;;;;;;;;;;7408504;19;19919;-78
2024/02/27 15:02:06;;;;;;;12.70;5.03;;;;;;;;;;7408499;19;19915;-78
2024/02/27 15:04:52;;;;;;;13.00;5.97;;;;;;;;;;7409713;19;19918;-78
2024/02/27 15:07:40;;;;;;;10.43;5.80;;;;;;;;;;7408517;19;19922;-78
2024/02/27 15:10:26;;;;;;;12.20;5.53;;;;;;;;;;7408823;19;19919;-78
2024/02/27 15:13:18;;;;;;;10.95;6.10;;;;;;;;;;7406111;19;20250;-78
2024/02/27 15:16:05;;;;;;;10.55;5.18;;;;;;;;;;7409183;19;19922;-78
2024/02/27 15:18:50;;;;;;;12.63;6.38;;;;;;;;;;7411953;19;19918;-78
2024/02/27 15:21:36;;;;;;;8.18;4.95;;;;;;;;;;7404179;19;19922;-78
2024/02/27 15:24:23;;;;;;;9.45;5.32;;;;;;;;;;7411358;19;20027;-78
2024/02/27 15:27:10;;;;;;;10.43;5.13;;;;;;;;;;7403703;19;20311;-79
2024/02/27 15:29:56;;;;;;;10.40;5.88;;;;;;;;;;7407605;19;19922;-78
2024/02/27 15:32:45;;;;;;;8.05;5.43;;;;;;;;;;7408990;19;19910;-78
2024/02/27 15:35:32;;;;;;;9.48;4.88;;;;;;;;;;7403841;19;19922;-78
2024/02/27 15:38:21;;;;;;;12.20;5.78;;;;;;;;;;7404512;19;20277;-78
2024/02/27 15:41:06;;;;;;;9.18;5.32;;;;;;;;;;7402223;19;19918;-78
2024/02/27 15:43:50;;;;;;;11.07;5.30;;;;;;;;;;7404170;19;19936;-78
2024/02/27 15:46:40;;;;;;;6.60;5.30;;;;;;;;;;7407223;19;20349;-78
2024/02/27 15:49:26;;;;;;;9.38;5.05;;;;;;;;;;7409204;19;19911;-78
2024/02/27 15:52:13;;;;;;;10.68;5.63;;;;;;;;;;7406528;19;19914;-78
2024/02/27 15:54:59;;;;;;;10.25;5.63;;;;;;;;;;7408841;19;19925;-78
2024/02/27 15:57:47;;;;;;;9.55;5.63;;;;;;;;;;7406705;19;20233;-78
2024/02/27 16:00:37;;;;;;;9.65;4.97;;;;;;;;;;7407946;19;19922;-78
2024/02/27 16:03:30;;;;;;;10.48;5.38;;;;;;;;;;7405511;19;19922;-79
2024/02/27 16:06:21;;;;;;;8.77;5.30;;;;;;;;;;7407077;19;19935;-78
2024/02/27 16:09:06;;;;;;;12.07;5.47;;;;;;;;;;7404555;19;19929;-79
2024/02/27 16:11:53;;;;;;;9.43;4.72;;;;;;;;;;7410272;19;20240;-77
2024/02/27 16:14:37;;;;;;;8.13;4.97;;;;;;;;;;7401844;19;20372;-77
2024/02/27 16:17:21;;;;;;;10.20;5.43;;;;;;;;;;7407502;19;20356;-77
2024/02/27 16:20:10;;;;;;;8.77;5.30;;;;;;;;;;7401953;19;19914;-79
2024/02/27 16:22:54;;;;;;;8.63;5.10;;;;;;;;;;7405311;19;19961;-78
2024/02/27 16:25:40;;;;;;;11.43;5.45;;;;;;;;;;7404432;19;19938;-78
2024/02/27 16:28:27;;;;;;;9.73;5.03;;;;;;;;;;7406612;19;19925;-78
2024/02/27 16:31:13;;;;;;;9.90;5.40;;;;;;;;;;7401420;19;19919;-78
2024/02/27 16:34:00;;;;;;;9.02;5.05;;;;;;;;;;7403853;19;20300;-78
2024/02/27 16:36:47;;;;;;;9.82;4.90;;;;;;;;;;7406717;19;19948;-78